Terminal Aerodrome Forecast
Issued by NWS

Home | Current Version | Previous Version | Text Only | Print | Product List | Glossary On
Versions: 1 2 3 4 5 6 7 8 9 10 11 12 13 14 15 16 17 18 19 20 21 22 23 24 25 26 27 28 29 30 31 32
345
FTUS46 KMTR 291722
TAFSFO
TAF
KSFO 291722Z 2918/3024 27014KT P6SM FEW006 OVC008
     FM291900 27017G23KT P6SM OVC008
     FM292030 27020G25KT P6SM FEW008 SCT012
     FM292200 28023G29KT P6SM SCT015
     FM300300 27017KT P6SM BKN012
     FM300600 27014KT P6SM OVC010
     FM301200 27014KT P6SM OVC007
     FM301900 28019G24KT P6SM SCT012=

USA.gov is the U.S. government's official web portal to all federal, state and local government web resources and services.